Marietta, Georgia
Current Conditions -  °F | °C
As of 4:58 PM on Thursday 27 Nov 2014 (Local Time) from KMGE Reporting Station
Overcast Overcast  
Wind Chill: 35°   Ceiling: 3600
Heat Index: 41°   Visibility: 10mi
Dew Point: 27°   Wind: 9mph
Humidity: 57%   Direction: 300°WNW
Pressure: 30.32"   Gusts: NA
Location:  33.95°N, 84.54°W
Report Text: KMGE 272158Z AUTO 30008KT 10SM OVC036 05/M03 A3032 RMK AO2 SLP274 T00501030 $
Loading
Personal Weather Stations






























Interactive Weather Map New forecast layout! Learn more

10-Day Weather Forecast

Advertisements
Track Severe Weather on mobile